createdAt,value
2023-03-30T00:01:23.273Z,30.00
2023-03-30T00:03:51.392Z,32.40
2023-03-30T00:06:22.581Z,32.63
2023-03-30T00:08:53.314Z,31.20
2023-03-30T00:11:23.403Z,30.57
2023-03-30T00:13:52.091Z,31.17
2023-03-30T00:16:21.700Z,27.57
2023-03-30T00:18:51.620Z,30.67
2023-03-30T00:21:20.666Z,28.40
2023-03-30T00:23:49.114Z,27.50
2023-03-30T00:26:17.892Z,26.20
2023-03-30T00:28:46.259Z,28.07
2023-03-30T00:31:14.316Z,24.27
2023-03-30T00:33:46.936Z,27.97
2023-03-30T00:36:17.829Z,24.93
2023-03-30T00:38:48.292Z,26.27
2023-03-30T00:41:17.795Z,25.73
2023-03-30T00:43:57.140Z,24.90
2023-03-30T00:46:25.887Z,23.73
2023-03-30T00:48:57.762Z,25.13
2023-03-30T00:51:28.993Z,23.83
2023-03-30T00:54:02.351Z,27.13
2023-03-30T00:56:31.844Z,25.53
2023-03-30T00:59:01.778Z,25.10
2023-03-30T01:01:40.246Z,24.53
2023-03-30T01:04:13.420Z,24.97
2023-03-30T01:06:46.336Z,22.00
2023-03-30T01:09:15.437Z,23.67
2023-03-30T01:11:44.248Z,25.10
2023-03-30T01:14:16.206Z,25.47
2023-03-30T01:16:54.857Z,24.10
2023-03-30T01:19:48.544Z,25.43
2023-03-30T01:22:54.059Z,25.40
2023-03-30T01:25:59.458Z,22.60
2023-03-30T01:28:37.672Z,27.40
2023-03-30T01:31:27.178Z,24.30
2023-03-30T01:34:19.663Z,23.07
2023-03-30T01:37:17.556Z,23.93
2023-03-30T01:39:57.122Z,23.63
2023-03-30T01:42:35.845Z,21.93
2023-03-30T01:45:13.232Z,24.90
2023-03-30T01:47:48.833Z,23.77
2023-03-30T01:50:24.226Z,24.73
2023-03-30T01:52:58.452Z,25.20
2023-03-30T01:55:34.762Z,23.63
2023-03-30T01:58:07.892Z,21.93
2023-03-30T02:00:38.221Z,22.87
2023-03-30T02:03:10.808Z,24.80
2023-03-30T02:05:40.641Z,24.33
2023-03-30T02:08:11.451Z,22.33
2023-03-30T02:10:42.978Z,22.30
2023-03-30T02:13:12.636Z,20.80
2023-03-30T02:15:45.384Z,22.13
2023-03-30T02:18:13.914Z,23.33
2023-03-30T02:20:42.644Z,23.70
2023-03-30T02:23:11.471Z,25.13
2023-03-30T02:25:41.034Z,21.27
2023-03-30T02:28:09.616Z,21.97
2023-03-30T02:30:42.408Z,20.77
2023-03-30T02:33:21.424Z,20.90
2023-03-30T02:36:17.750Z,21.17
2023-03-30T02:39:07.629Z,22.20
2023-03-30T02:41:52.597Z,21.27
2023-03-30T02:44:30.614Z,21.50
2023-03-30T02:47:08.068Z,22.40
2023-03-30T02:49:51.951Z,21.23
2023-03-30T02:52:34.090Z,22.07
2023-03-30T02:55:11.833Z,20.97
2023-03-30T02:58:16.692Z,21.23
2023-03-30T03:01:06.049Z,22.23
2023-03-30T03:04:01.915Z,23.50
2023-03-30T03:06:35.193Z,21.87
2023-03-30T03:09:03.546Z,22.03
2023-03-30T03:11:33.938Z,20.13
2023-03-30T03:14:03.651Z,23.37
2023-03-30T03:16:34.265Z,19.70
2023-03-30T03:19:20.675Z,22.47
2023-03-30T03:21:51.703Z,19.83
2023-03-30T03:24:19.823Z,19.83
2023-03-30T03:27:06.607Z,21.57
2023-03-30T03:29:47.457Z,18.77
2023-03-30T03:32:16.199Z,21.30
2023-03-30T03:34:47.367Z,20.63
2023-03-30T03:37:15.595Z,22.10
2023-03-30T03:39:45.667Z,21.17
2023-03-30T03:42:15.699Z,21.37
2023-03-30T03:45:07.771Z,20.00
2023-03-30T03:47:37.305Z,18.20
2023-03-30T03:50:09.349Z,19.77
2023-03-30T03:52:37.932Z,21.67
2023-03-30T03:55:07.824Z,19.87
2023-03-30T03:57:37.629Z,17.53
2023-03-30T04:00:15.508Z,19.47
2023-03-30T04:02:46.269Z,17.97
2023-03-30T04:05:14.613Z,22.10
2023-03-30T04:07:46.282Z,19.47
2023-03-30T04:10:15.319Z,16.53
2023-03-30T04:13:02.219Z,17.67
2023-03-30T04:15:31.940Z,19.43
2023-03-30T04:18:11.577Z,18.40
2023-03-30T04:21:17.788Z,18.43
2023-03-30T04:24:15.388Z,18.47
2023-03-30T04:27:09.752Z,16.10
2023-03-30T04:29:46.140Z,16.17
2023-03-30T04:32:34.881Z,16.97
2023-03-30T04:35:16.786Z,15.33
2023-03-30T04:38:06.166Z,16.57
2023-03-30T04:41:02.111Z,16.90
2023-03-30T04:43:54.100Z,17.87
2023-03-30T04:46:53.942Z,15.03
2023-03-30T04:49:49.297Z,18.37
2023-03-30T04:52:43.371Z,14.50
2023-03-30T04:55:32.956Z,13.60
2023-03-30T04:58:19.279Z,14.07
2023-03-30T05:01:10.343Z,17.27
2023-03-30T05:04:01.238Z,12.60
2023-03-30T05:06:49.697Z,13.40
2023-03-30T05:09:36.648Z,12.97
2023-03-30T05:12:23.155Z,14.13
2023-03-30T05:15:10.454Z,14.33
2023-03-30T05:17:54.336Z,13.23
2023-03-30T05:20:41.422Z,11.97
2023-03-30T05:23:24.570Z,13.93
2023-03-30T05:25:53.338Z,11.00
2023-03-30T05:28:59.992Z,12.73
2023-03-30T05:31:46.465Z,12.37
2023-03-30T05:34:42.156Z,12.70
2023-03-30T05:37:33.125Z,12.10
2023-03-30T05:40:25.702Z,12.83
2023-03-30T05:43:12.412Z,14.97
2023-03-30T05:46:07.096Z,11.73
2023-03-30T05:49:02.144Z,13.20
2023-03-30T05:51:41.208Z,15.00
2023-03-30T05:54:28.529Z,12.90
2023-03-30T05:57:16.369Z,13.07
2023-03-30T05:59:54.775Z,18.17
2023-03-30T06:02:41.061Z,16.53
2023-03-30T06:05:16.297Z,14.90
2023-03-30T06:07:46.285Z,11.60
2023-03-30T06:10:14.459Z,11.37
2023-03-30T06:12:45.340Z,14.53
2023-03-30T06:15:27.743Z,10.90
2023-03-30T06:18:04.344Z,12.57
2023-03-30T06:20:35.287Z,11.73
2023-03-30T06:23:03.464Z,9.73
2023-03-30T06:25:32.332Z,12.63
2023-03-30T06:28:02.399Z,12.17
2023-03-30T06:30:30.894Z,11.07
2023-03-30T06:33:03.246Z,14.30
2023-03-30T06:35:39.144Z,11.37
2023-03-30T06:38:07.408Z,10.37
2023-03-30T06:40:37.072Z,11.30
2023-03-30T06:43:07.424Z,10.57
2023-03-30T06:45:52.120Z,12.20
2023-03-30T06:48:22.467Z,8.70
2023-03-30T06:50:56.368Z,8.97
2023-03-30T06:53:26.914Z,8.77
2023-03-30T06:55:56.849Z,8.87
2023-03-30T06:58:28.421Z,9.03
2023-03-30T07:00:56.969Z,10.97
2023-03-30T07:03:46.477Z,9.03
2023-03-30T07:06:24.306Z,7.57
2023-03-30T07:08:53.727Z,9.53
2023-03-30T07:11:26.170Z,7.60
2023-03-30T07:13:58.290Z,9.03
2023-03-30T07:16:26.637Z,8.07
2023-03-30T07:18:55.257Z,9.50
2023-03-30T07:21:23.739Z,9.13
2023-03-30T07:23:52.005Z,9.27
2023-03-30T07:26:30.649Z,8.47
2023-03-30T07:29:09.068Z,8.43
2023-03-30T07:31:39.806Z,7.33
2023-03-30T07:34:10.363Z,9.23
2023-03-30T07:36:42.982Z,8.60
2023-03-30T07:39:11.174Z,8.70
2023-03-30T07:41:41.381Z,7.67
2023-03-30T07:44:10.966Z,9.47
2023-03-30T07:46:39.302Z,8.07
2023-03-30T07:49:09.627Z,8.63
2023-03-30T07:51:37.758Z,8.33
2023-03-30T07:54:14.899Z,7.30
2023-03-30T07:56:58.534Z,6.93
2023-03-30T07:59:28.175Z,9.17
2023-03-30T08:02:01.951Z,8.23
2023-03-30T08:04:41.667Z,6.00
2023-03-30T08:07:10.789Z,7.07
2023-03-30T08:09:39.571Z,6.63
2023-03-30T08:12:08.096Z,9.50
2023-03-30T08:14:37.524Z,6.17
2023-03-30T08:17:07.100Z,8.07
2023-03-30T08:19:35.458Z,7.60
2023-03-30T08:22:08.224Z,10.03
2023-03-30T08:24:37.260Z,8.63
2023-03-30T08:30:08.766Z,9.20
2023-03-30T08:32:38.320Z,7.30
2023-03-30T08:35:08.938Z,6.63
2023-03-30T08:37:37.897Z,7.80
2023-03-30T08:40:10.456Z,6.60
2023-03-30T08:42:51.052Z,8.60
2023-03-30T08:45:22.852Z,7.07
2023-03-30T08:47:54.691Z,7.53
2023-03-30T08:50:33.370Z,7.17
2023-03-30T08:53:04.195Z,9.97
2023-03-30T08:55:40.703Z,7.93
2023-03-30T08:58:16.510Z,7.67
2023-03-30T09:00:52.087Z,5.90
2023-03-30T09:03:27.874Z,8.27
2023-03-30T09:06:01.680Z,7.27
2023-03-30T09:08:31.967Z,5.93
2023-03-30T09:11:02.421Z,7.63
2023-03-30T09:13:35.344Z,5.57
2023-03-30T09:16:14.659Z,7.70
2023-03-30T09:18:44.584Z,8.50
2023-03-30T09:21:14.533Z,8.53
2023-03-30T09:23:42.700Z,6.43
2023-03-30T09:26:19.604Z,7.53
2023-03-30T09:28:56.963Z,8.77
2023-03-30T09:31:32.269Z,7.07
2023-03-30T09:34:07.971Z,4.07
2023-03-30T09:36:44.756Z,5.30
2023-03-30T09:39:18.373Z,6.03
2023-03-30T09:41:59.832Z,7.30
2023-03-30T09:44:33.804Z,6.67
2023-03-30T09:47:04.571Z,7.20
2023-03-30T09:49:39.628Z,5.77
2023-03-30T09:52:09.081Z,6.23
2023-03-30T09:54:38.897Z,5.87
2023-03-30T09:57:07.608Z,6.83
2023-03-30T09:59:37.346Z,6.27
2023-03-30T10:02:20.059Z,4.87
2023-03-30T10:05:03.732Z,4.40
2023-03-30T10:07:37.806Z,4.97
2023-03-30T10:10:16.691Z,4.33
2023-03-30T10:12:45.861Z,6.87
2023-03-30T10:15:18.171Z,6.60
2023-03-30T10:17:51.439Z,10.30
2023-03-30T10:20:27.883Z,5.23
2023-03-30T10:22:57.797Z,3.23
2023-03-30T10:25:29.756Z,4.60
2023-03-30T10:28:03.156Z,2.83
2023-03-30T10:30:33.625Z,4.00
2023-03-30T10:33:04.597Z,5.23
2023-03-30T10:35:38.779Z,5.07
2023-03-30T10:38:11.097Z,6.33
2023-03-30T10:40:42.534Z,6.57
2023-03-30T10:43:16.833Z,6.73
2023-03-30T10:45:50.118Z,6.80
2023-03-30T10:48:38.789Z,4.03
2023-03-30T10:51:18.689Z,5.00
2023-03-30T10:53:59.654Z,6.70
2023-03-30T10:56:37.150Z,8.43
2023-03-30T10:59:31.232Z,6.00
2023-03-30T11:02:21.774Z,6.13
2023-03-30T11:04:55.639Z,7.77
2023-03-30T11:07:30.773Z,8.00
2023-03-30T11:10:03.853Z,7.27
2023-03-30T11:12:37.335Z,6.33
2023-03-30T11:15:10.838Z,7.73
2023-03-30T11:17:45.260Z,4.43
2023-03-30T11:20:27.238Z,7.17
2023-03-30T11:23:04.719Z,7.87
2023-03-30T11:25:43.136Z,7.40
2023-03-30T11:28:19.375Z,11.43
2023-03-30T11:30:49.333Z,8.50
2023-03-30T11:33:26.950Z,5.30
2023-03-30T11:36:01.002Z,8.07
2023-03-30T11:38:34.332Z,7.23
2023-03-30T11:41:08.176Z,7.50
2023-03-30T11:43:36.292Z,8.83
2023-03-30T11:46:09.820Z,8.93
2023-03-30T11:49:10.938Z,8.87
2023-03-30T11:51:55.994Z,8.50
2023-03-30T11:55:01.722Z,9.67
2023-03-30T11:57:38.149Z,7.07
2023-03-30T12:00:24.613Z,10.73
2023-03-30T12:02:59.021Z,9.50
2023-03-30T12:05:32.226Z,11.53
2023-03-30T12:08:11.501Z,10.90
2023-03-30T12:10:42.100Z,8.10
2023-03-30T12:13:14.140Z,12.33
2023-03-30T12:15:48.904Z,9.77
2023-03-30T12:18:29.398Z,9.27
2023-03-30T12:21:06.178Z,9.47
2023-03-30T12:23:42.631Z,9.77
2023-03-30T12:26:20.261Z,14.23
2023-03-30T12:29:40.518Z,9.47
2023-03-30T12:32:06.406Z,9.03
2023-03-30T12:34:37.134Z,8.93
2023-03-30T12:37:09.992Z,9.90
2023-03-30T12:39:49.153Z,15.33
2023-03-30T12:42:27.887Z,8.70
2023-03-30T12:45:14.108Z,11.80
2023-03-30T12:48:03.441Z,9.93
2023-03-30T12:50:43.455Z,6.27
2023-03-30T12:53:29.667Z,11.10
2023-03-30T12:56:07.462Z,10.00
2023-03-30T12:59:04.548Z,11.03
2023-03-30T13:01:46.974Z,7.57
2023-03-30T13:04:17.812Z,12.63
2023-03-30T13:06:52.659Z,7.50
2023-03-30T13:09:53.937Z,7.27
2023-03-30T13:12:32.412Z,7.17
2023-03-30T13:15:08.152Z,8.47
2023-03-30T13:17:51.731Z,6.93
2023-03-30T13:20:28.948Z,6.17
2023-03-30T13:23:24.999Z,4.87
2023-03-30T13:26:03.175Z,4.73
2023-03-30T13:28:58.418Z,5.37
2023-03-30T13:31:41.408Z,8.90
2023-03-30T13:34:18.493Z,7.10
2023-03-30T13:36:55.677Z,7.37
2023-03-30T13:39:30.063Z,4.93
2023-03-30T13:42:10.951Z,5.73
2023-03-30T13:44:56.797Z,7.13
2023-03-30T13:48:05.597Z,7.33
2023-03-30T13:50:35.314Z,9.13
2023-03-30T13:53:09.088Z,8.00
2023-03-30T13:55:40.432Z,6.63
2023-03-30T13:58:14.836Z,7.00
2023-03-30T14:00:49.899Z,7.90
2023-03-30T14:03:33.327Z,7.03
2023-03-30T14:06:03.807Z,7.90
2023-03-30T14:08:37.564Z,5.73
2023-03-30T14:11:12.145Z,6.23
2023-03-30T14:13:40.452Z,8.17
2023-03-30T14:16:11.510Z,8.10
2023-03-30T14:18:39.617Z,7.57
2023-03-30T14:21:15.650Z,5.63
2023-03-30T14:23:48.369Z,8.07
2023-03-30T14:26:18.847Z,7.47
2023-03-30T14:28:46.892Z,10.80
2023-03-30T14:31:18.671Z,5.73
2023-03-30T14:33:47.177Z,7.10
2023-03-30T14:36:17.502Z,8.03
2023-03-30T14:38:47.911Z,9.07
2023-03-30T14:41:19.059Z,6.83
2023-03-30T14:43:53.853Z,6.93
2023-03-30T14:46:26.639Z,6.67
2023-03-30T14:48:56.081Z,7.37
2023-03-30T14:51:27.398Z,7.80
2023-03-30T14:53:57.715Z,8.30
2023-03-30T14:56:28.025Z,8.63
2023-03-30T14:58:57.172Z,9.77
2023-03-30T15:01:31.557Z,7.30
2023-03-30T15:04:02.796Z,9.27
2023-03-30T15:06:31.804Z,7.50
2023-03-30T15:09:04.307Z,8.60
2023-03-30T15:11:34.466Z,7.17
2023-03-30T15:14:05.844Z,10.63
2023-03-30T15:16:36.350Z,9.03
2023-03-30T15:19:07.482Z,7.73
2023-03-30T15:21:38.132Z,7.97
2023-03-30T15:24:08.643Z,7.43
2023-03-30T15:26:42.733Z,10.13
2023-03-30T15:29:11.676Z,9.73
2023-03-30T15:31:41.025Z,7.30
2023-03-30T15:34:16.345Z,9.23
2023-03-30T15:36:45.493Z,10.47
2023-03-30T15:39:22.485Z,10.50
2023-03-30T15:42:00.801Z,14.73
2023-03-30T15:44:29.689Z,12.80
2023-03-30T15:47:01.802Z,11.60
2023-03-30T15:49:33.514Z,12.87
2023-03-30T15:52:02.951Z,11.97
2023-03-30T15:54:34.802Z,11.03
2023-03-30T15:57:05.419Z,13.20
2023-03-30T15:59:37.409Z,14.33
2023-03-30T16:02:16.929Z,10.37
2023-03-30T16:04:45.188Z,14.63
2023-03-30T16:07:19.102Z,13.37
2023-03-30T16:09:47.882Z,17.03
2023-03-30T16:12:18.108Z,11.33
2023-03-30T16:14:47.794Z,12.10
2023-03-30T16:17:17.244Z,12.37
2023-03-30T16:19:45.769Z,13.90
2023-03-30T16:22:15.281Z,11.20
2023-03-30T16:24:44.153Z,16.63
2023-03-30T16:27:13.188Z,16.20
2023-03-30T16:29:41.280Z,13.00
2023-03-30T16:32:09.506Z,18.60
2023-03-30T16:34:40.438Z,11.60
2023-03-30T16:37:11.232Z,13.37
2023-03-30T16:39:39.301Z,13.07
2023-03-30T16:42:07.384Z,13.97
2023-03-30T16:44:36.349Z,15.10
2023-03-30T16:47:04.821Z,14.63
2023-03-30T16:49:33.140Z,10.33
2023-03-30T16:52:02.940Z,16.43
2023-03-30T16:54:32.563Z,13.73
2023-03-30T16:57:01.577Z,17.37
2023-03-30T16:59:31.234Z,13.07
2023-03-30T17:02:00.076Z,17.53
2023-03-30T17:04:28.518Z,12.17
2023-03-30T17:06:56.657Z,11.37
2023-03-30T17:09:27.113Z,13.50
2023-03-30T17:11:55.185Z,15.13
2023-03-30T17:14:24.318Z,9.80
2023-03-30T17:16:52.410Z,13.90
2023-03-30T17:19:20.523Z,16.70
2023-03-30T17:21:48.621Z,10.97
2023-03-30T17:24:17.050Z,13.73
2023-03-30T17:26:46.476Z,11.90
2023-03-30T17:29:14.603Z,12.20
2023-03-30T17:31:45.551Z,12.70
2023-03-30T17:34:14.593Z,15.43
2023-03-30T17:36:42.867Z,13.73
2023-03-30T17:39:13.947Z,14.17
2023-03-30T17:41:42.238Z,18.50
2023-03-30T17:44:11.623Z,11.60
2023-03-30T17:46:40.742Z,14.87
2023-03-30T17:49:16.699Z,19.80
2023-03-30T17:51:44.727Z,15.90
2023-03-30T17:54:12.799Z,14.27
2023-03-30T17:56:40.813Z,24.70
2023-03-30T17:59:13.079Z,16.17
2023-03-30T18:01:41.207Z,15.60
2023-03-30T18:04:09.529Z,11.67
2023-03-30T18:06:37.670Z,15.70
2023-03-30T18:09:07.535Z,11.97
2023-03-30T18:11:35.665Z,14.03
2023-03-30T18:14:03.689Z,15.40
2023-03-30T18:16:33.154Z,18.87
2023-03-30T18:19:02.255Z,16.60
2023-03-30T18:21:30.362Z,12.03
2023-03-30T18:23:58.400Z,16.27
2023-03-30T18:26:26.997Z,16.07
2023-03-30T18:28:55.022Z,16.67
2023-03-30T18:31:23.262Z,12.63
2023-03-30T18:33:53.659Z,14.20
2023-03-30T18:36:22.615Z,11.80
2023-03-30T18:38:50.707Z,16.83
2023-03-30T18:41:18.721Z,15.53
2023-03-30T18:43:46.753Z,18.30
2023-03-30T18:46:14.890Z,16.27
2023-03-30T18:48:43.064Z,14.53
2023-03-30T18:51:13.277Z,17.87
2023-03-30T18:53:41.436Z,15.37
2023-03-30T18:56:13.591Z,12.07
2023-03-30T18:58:42.871Z,17.57
2023-03-30T19:01:12.822Z,15.60
2023-03-30T19:03:41.777Z,14.73
2023-03-30T19:06:13.689Z,14.90
2023-03-30T19:08:43.443Z,13.10
2023-03-30T19:11:14.252Z,15.67
2023-03-30T19:13:42.299Z,15.47
2023-03-30T19:16:11.236Z,17.67
2023-03-30T19:18:39.979Z,17.17
2023-03-30T19:21:08.239Z,16.13
2023-03-30T19:23:37.814Z,17.17
2023-03-30T19:26:05.909Z,13.47
2023-03-30T19:28:34.302Z,15.10
2023-03-30T19:31:06.432Z,16.37
2023-03-30T19:33:34.628Z,15.00
2023-03-30T19:36:02.847Z,18.53
2023-03-30T19:38:30.963Z,15.70
2023-03-30T19:41:03.152Z,17.60
2023-03-30T19:43:31.600Z,13.73
2023-03-30T19:45:59.651Z,17.50
2023-03-30T19:48:27.696Z,12.30
2023-03-30T19:50:55.859Z,15.37
2023-03-30T19:53:24.123Z,18.70
2023-03-30T19:55:52.144Z,18.30
2023-03-30T19:58:21.585Z,11.67
2023-03-30T20:00:50.706Z,14.17
2023-03-30T20:03:18.948Z,14.37
2023-03-30T20:05:51.147Z,17.37
2023-03-30T20:08:24.384Z,19.17
2023-03-30T20:10:53.115Z,17.83
2023-03-30T20:13:23.953Z,23.33
2023-03-30T20:15:56.200Z,16.57
2023-03-30T20:18:24.485Z,17.20
2023-03-30T20:20:52.751Z,18.63
2023-03-30T20:23:20.771Z,17.27
2023-03-30T20:25:50.348Z,16.93
2023-03-30T20:28:18.746Z,21.97
2023-03-30T20:30:48.180Z,18.73
2023-03-30T20:33:16.322Z,13.53
2023-03-30T20:35:44.609Z,15.70
2023-03-30T20:38:12.748Z,17.63
2023-03-30T20:40:40.776Z,21.90
2023-03-30T20:43:10.304Z,19.20
2023-03-30T20:45:47.948Z,19.40
2023-03-30T20:48:26.298Z,22.90
2023-03-30T20:50:55.780Z,22.53
2023-03-30T20:53:24.836Z,20.23
2023-03-30T20:55:52.953Z,20.20
2023-03-30T20:58:22.303Z,21.70
2023-03-30T21:00:51.964Z,21.00
2023-03-30T21:03:25.999Z,18.47
2023-03-30T21:06:00.533Z,18.33
2023-03-30T21:08:28.870Z,27.00
2023-03-30T21:10:57.042Z,20.37
2023-03-30T21:13:25.452Z,17.70
2023-03-30T21:15:57.666Z,22.17
2023-03-30T21:18:27.489Z,17.10
2023-03-30T21:20:56.362Z,20.07
2023-03-30T21:23:25.444Z,20.90
2023-03-30T21:25:56.763Z,20.20
2023-03-30T21:28:27.100Z,21.33
2023-03-30T21:30:55.462Z,23.43
2023-03-30T21:33:24.300Z,18.47
2023-03-30T21:35:55.318Z,24.17
2023-03-30T21:38:24.217Z,21.10
2023-03-30T21:41:00.079Z,20.60
2023-03-30T21:43:29.982Z,18.77
2023-03-30T21:46:00.193Z,28.50
2023-03-30T21:48:30.355Z,22.60
2023-03-30T21:51:01.235Z,22.70
2023-03-30T21:53:30.551Z,23.23
2023-03-30T21:55:59.176Z,17.57
2023-03-30T21:58:27.691Z,17.67
2023-03-30T22:01:09.079Z,20.67
2023-03-30T22:03:40.779Z,22.53
2023-03-30T22:06:12.999Z,16.77
2023-03-30T22:08:41.439Z,16.60
2023-03-30T22:11:12.363Z,22.27
2023-03-30T22:13:40.947Z,18.70
2023-03-30T22:16:13.131Z,22.80
2023-03-30T22:18:41.824Z,21.07
2023-03-30T22:21:14.977Z,17.63
2023-03-30T22:23:43.112Z,27.37
2023-03-30T22:26:11.956Z,17.43
2023-03-30T22:28:40.316Z,24.23
2023-03-30T22:31:08.676Z,19.33
2023-03-30T22:33:36.907Z,19.87
2023-03-30T22:36:07.234Z,26.97
2023-03-30T22:38:37.011Z,23.13
2023-03-30T22:41:07.590Z,19.70
2023-03-30T22:43:36.386Z,19.07
2023-03-30T22:46:05.508Z,22.43
2023-03-30T22:48:34.364Z,21.13
2023-03-30T22:51:03.236Z,21.87
2023-03-30T22:53:32.111Z,18.00
2023-03-30T22:56:01.831Z,22.30
2023-03-30T22:58:29.909Z,21.20
2023-03-30T23:01:01.901Z,19.43
2023-03-30T23:03:30.329Z,21.70
2023-03-30T23:06:01.138Z,21.57
2023-03-30T23:08:29.882Z,18.70
2023-03-30T23:11:04.073Z,20.43
2023-03-30T23:13:37.352Z,23.37
2023-03-30T23:16:08.355Z,21.47
2023-03-30T23:18:37.238Z,16.30
2023-03-30T23:21:06.722Z,19.87
2023-03-30T23:23:35.994Z,17.67
2023-03-30T23:26:08.425Z,19.13
2023-03-30T23:28:40.198Z,20.93
2023-03-30T23:31:09.342Z,13.40
2023-03-30T23:33:37.473Z,21.17
2023-03-30T23:36:07.323Z,18.40
2023-03-30T23:38:36.000Z,20.97
2023-03-30T23:41:04.157Z,16.40
2023-03-30T23:43:32.190Z,18.33
2023-03-30T23:46:01.948Z,12.63
2023-03-30T23:48:30.007Z,15.30
2023-03-30T23:50:58.412Z,20.10
2023-03-30T23:53:26.972Z,15.20
2023-03-30T23:55:55.195Z,19.40
2023-03-30T23:58:23.603Z,16.90
